Аэропорт: Платов. Ростов-на-Дону

ICAO: URRP

METAR:
2021-04-21 21:30:00
URRP 212130Z 29003MPS 5000 BR NSC 09/08 Q1020 R23/CLRD70 NOSIG RMK QFE757/1010
METAR:
2021-04-21 19:57:00
TAF URRP 211957Z 2121/2221 24003G10MPS 6000 BKN016 TEMPO 2121/2206 0300 FG BKN001